Time;durP1;ratioP1;P1;durP2;ratioP2;P2;SDS_P1;SDS_P2;PMS_P1;PMS_P2;Temp;Humidity;BMP_temperature;BMP_pressure;BME280_temperature;BME280_humidity;BME280_pressure;Samples;Min_cycle;Max_cycle;Signal;HPM_P1;HPM_P2
2023/04/04 00:02:08;;;;;;;46.45;30.98;;;27.40;99.90;;;;;;5073297;28;20025;-73
2023/04/04 00:04:35;;;;;;;49.10;28.45;;;27.40;99.90;;;;;;5073495;28;20490;-73
2023/04/04 00:07:01;;;;;;;41.00;28.95;;;27.30;99.90;;;;;;5073285;28;20382;-72
2023/04/04 00:09:28;;;;;;;35.38;25.40;;;27.40;99.90;;;;;;5073280;28;20024;-71
2023/04/04 00:11:55;;;;;;;35.33;25.15;;;27.40;99.90;;;;;;5073131;28;20021;-70
2023/04/04 00:14:22;;;;;;;40.42;25.98;;;27.50;99.90;;;;;;5073230;28;20025;-71
2023/04/04 00:16:48;;;;;;;48.75;29.80;;;27.50;99.90;;;;;;5073006;28;20097;-71
2023/04/04 00:19:17;;;;;;;49.92;31.70;;;27.50;99.90;;;;;;5072955;28;20067;-73
2023/04/04 00:21:44;;;;;;;46.40;31.52;;;27.50;99.90;;;;;;5077156;28;20025;-72
2023/04/04 00:24:11;;;;;;;37.08;25.48;;;27.40;99.90;;;;;;5077187;28;20479;-73
2023/04/04 00:26:38;;;;;;;39.45;26.92;;;27.30;99.90;;;;;;5087244;28;20024;-72
2023/04/04 00:29:04;;;;;;;57.45;27.55;;;27.40;99.90;;;;;;5117955;28;20409;-72
2023/04/04 00:31:31;;;;;;;42.55;25.88;;;27.40;99.90;;;;;;5117951;28;20054;-72
2023/04/04 00:33:57;;;;;;;39.13;25.95;;;27.50;99.90;;;;;;5117413;28;20393;-72
2023/04/04 00:36:24;;;;;;;34.75;22.15;;;27.60;99.90;;;;;;5115215;28;20047;-74
2023/04/04 00:38:51;;;;;;;29.83;21.58;;;27.60;99.90;;;;;;5097109;28;20054;-72
2023/04/04 00:41:17;;;;;;;31.15;22.42;;;27.60;99.90;;;;;;5096900;28;20020;-72
2023/04/04 00:43:45;;;;;;;34.33;24.52;;;27.70;99.90;;;;;;5097065;28;20055;-73
2023/04/04 00:46:13;;;;;;;32.67;24.85;;;27.70;99.90;;;;;;5097082;28;20016;-72
2023/04/04 00:48:41;;;;;;;31.05;26.58;;;27.80;99.90;;;;;;5096960;28;20020;-71
2023/04/04 00:51:08;;;;;;;31.80;26.33;;;27.90;99.90;;;;;;5097204;28;20028;-72
2023/04/04 00:53:36;;;;;;;42.33;27.52;;;27.90;99.90;;;;;;5096938;28;20020;-71
2023/04/04 00:56:03;;;;;;;19.42;15.63;;;28.00;99.90;;;;;;5097143;28;20382;-71
2023/04/04 00:58:30;;;;;;;19.70;14.13;;;28.10;99.90;;;;;;5096861;28;20020;-72
2023/04/04 01:01:00;;;;;;;20.35;13.65;;;28.20;99.90;;;;;;5096607;28;20032;-72
2023/04/04 01:03:27;;;;;;;25.10;16.77;;;28.30;99.90;;;;;;5096460;28;20140;-71
2023/04/04 01:05:55;;;;;;;24.98;17.17;;;28.30;99.90;;;;;;5096766;28;20065;-71
2023/04/04 01:08:26;;;;;;;21.48;16.25;;;28.30;99.90;;;;;;5094560;28;20446;-72
2023/04/04 01:10:52;;;;;;;23.30;17.05;;;28.30;99.90;;;;;;5085037;28;20101;-73
2023/04/04 01:13:20;;;;;;;28.83;19.23;;;28.30;99.90;;;;;;5076248;28;20025;-75
2023/04/04 01:15:48;;;;;;;32.13;23.67;;;28.40;99.90;;;;;;5076184;28;20045;-69
2023/04/04 01:18:19;;;;;;;29.20;21.67;;;28.40;99.90;;;;;;5076111;28;20021;-73
2023/04/04 01:21:15;;;;;;;28.45;20.38;;;28.40;99.90;;;;;;5076067;28;20024;-71
2023/04/04 01:24:01;;;;;;;31.35;21.73;;;28.50;99.90;;;;;;5075980;28;20490;-75
2023/04/04 01:26:28;;;;;;;28.25;20.23;;;28.50;99.90;;;;;;5076007;28;20020;-77
2023/04/04 01:28:55;;;;;;;26.10;16.02;;;28.60;99.90;;;;;;5076009;28;20016;-75
2023/04/04 01:31:30;;;;;;;29.45;18.58;;;28.60;99.90;;;;;;5075941;28;20021;-75
2023/04/04 01:34:11;;;;;;;23.17;18.33;;;28.60;99.90;;;;;;5075746;28;20031;-74
2023/04/04 01:36:43;;;;;;;21.83;19.00;;;28.50;99.90;;;;;;5075852;28;20490;-72
2023/04/04 01:39:28;;;;;;;25.38;14.90;;;28.60;99.90;;;;;;5075632;28;20025;-73
2023/04/04 01:41:57;;;;;;;22.73;15.68;;;28.70;99.90;;;;;;5075529;28;20056;-72
2023/04/04 01:44:25;;;;;;;20.27;13.48;;;28.70;99.90;;;;;;5075699;28;20077;-73
2023/04/04 01:46:55;;;;;;;24.90;13.13;;;28.80;99.90;;;;;;5075662;28;20104;-73
2023/04/04 01:49:22;;;;;;;20.42;12.48;;;28.80;99.90;;;;;;5075648;28;20043;-74
2023/04/04 01:51:51;;;;;;;21.42;14.23;;;28.80;99.90;;;;;;5075437;28;20119;-74
2023/04/04 01:54:18;;;;;;;22.88;14.30;;;28.90;99.90;;;;;;5075583;28;20052;-75
2023/04/04 01:56:45;;;;;;;18.73;12.70;;;28.90;99.90;;;;;;5075576;28;20024;-74
2023/04/04 01:59:12;;;;;;;20.60;13.32;;;28.90;99.90;;;;;;5075416;28;20030;-71
2023/04/04 02:01:38;;;;;;;19.65;11.98;;;28.90;99.90;;;;;;5075356;28;20075;-72
2023/04/04 02:04:06;;;;;;;12.50;10.57;;;28.90;99.90;;;;;;5075546;28;20025;-71
2023/04/04 02:06:32;;;;;;;31.25;14.45;;;28.90;99.90;;;;;;5075162;28;20045;-71
2023/04/04 02:08:59;;;;;;;19.45;13.68;;;29.10;99.90;;;;;;5075216;28;20032;-72
2023/04/04 02:11:26;;;;;;;26.83;15.65;;;29.20;99.90;;;;;;5075238;28;20028;-70
2023/04/04 02:13:52;;;;;;;18.77;13.50;;;29.30;99.90;;;;;;5077624;28;20060;-70
2023/04/04 02:16:19;;;;;;;18.08;11.57;;;29.40;99.90;;;;;;5084131;28;20051;-70
2023/04/04 02:18:46;;;;;;;15.57;11.43;;;29.40;99.90;;;;;;5075225;28;20039;-71
2023/04/04 02:21:13;;;;;;;16.38;10.63;;;29.50;99.90;;;;;;5075046;28;20021;-70
2023/04/04 02:23:39;;;;;;;14.15;10.50;;;29.40;99.90;;;;;;5075610;28;20476;-71
2023/04/04 02:26:06;;;;;;;19.63;11.93;;;29.50;99.90;;;;;;5075618;28;20103;-71
2023/04/04 02:28:32;;;;;;;16.85;13.45;;;29.50;99.90;;;;;;5074824;28;20498;-71
2023/04/04 02:31:01;;;;;;;25.00;15.02;;;29.50;99.90;;;;;;5074873;28;20024;-72
2023/04/04 02:33:28;;;;;;;19.75;13.05;;;29.60;99.90;;;;;;5074343;28;20024;-71
2023/04/04 02:35:58;;;;;;;18.23;12.80;;;29.60;99.90;;;;;;5092635;28;20390;-68
2023/04/04 02:38:25;;;;;;;17.98;12.50;;;29.60;99.90;;;;;;5094856;28;20024;-70
2023/04/04 02:40:51;;;;;;;22.40;13.35;;;29.80;99.90;;;;;;5094923;28;20038;-70
2023/04/04 02:43:18;;;;;;;21.75;12.70;;;29.90;99.90;;;;;;5094333;28;20031;-70
2023/04/04 02:45:47;;;;;;;18.27;13.48;;;29.90;99.90;;;;;;5095253;28;20012;-71
2023/04/04 02:48:13;;;;;;;25.30;16.42;;;30.00;99.90;;;;;;5095442;28;20050;-70
2023/04/04 02:50:40;;;;;;;22.67;16.40;;;30.00;99.90;;;;;;5094877;28;20030;-71
2023/04/04 02:53:06;;;;;;;25.58;16.42;;;30.10;99.90;;;;;;5095216;28;20020;-69
2023/04/04 02:55:33;;;;;;;23.58;17.20;;;30.10;99.90;;;;;;5094844;28;20024;-70
2023/04/04 02:58:00;;;;;;;26.42;17.33;;;30.20;99.90;;;;;;5094619;28;20025;-71
2023/04/04 03:00:27;;;;;;;22.10;14.63;;;30.30;99.90;;;;;;5095142;28;20470;-69
2023/04/04 03:02:54;;;;;;;20.95;15.32;;;30.30;99.90;;;;;;5094779;28;20161;-69
2023/04/04 03:05:24;;;;;;;23.40;14.90;;;30.30;99.90;;;;;;5094816;28;20020;-69
2023/04/04 03:07:59;;;;;;;19.27;14.55;;;30.30;99.90;;;;;;5094502;28;20479;-68
2023/04/04 03:10:31;;;;;;;19.08;14.60;;;30.20;99.90;;;;;;5094799;28;20032;-70
2023/04/04 03:12:57;;;;;;;26.63;14.25;;;30.20;99.90;;;;;;5094363;28;20031;-70
2023/04/04 03:15:25;;;;;;;18.65;14.00;;;30.30;99.90;;;;;;5094642;28;20036;-68
2023/04/04 03:17:52;;;;;;;23.05;17.83;;;30.40;99.90;;;;;;5094346;28;20513;-67
2023/04/04 03:20:19;;;;;;;26.40;19.15;;;30.50;99.90;;;;;;5093904;28;20058;-67
2023/04/04 03:22:45;;;;;;;68.05;24.75;;;30.50;99.90;;;;;;5093760;28;20073;-68
2023/04/04 03:25:12;;;;;;;43.78;21.70;;;30.60;99.90;;;;;;5094274;28;20504;-68
2023/04/04 03:27:38;;;;;;;45.08;23.02;;;30.80;99.90;;;;;;5093977;28;20045;-68
2023/04/04 03:30:07;;;;;;;26.65;18.20;;;30.80;99.90;;;;;;5094649;28;20443;-67
2023/04/04 03:32:36;;;;;;;21.92;12.55;;;30.80;99.90;;;;;;5094227;28;20492;-68
2023/04/04 03:35:03;;;;;;;19.65;12.63;;;30.90;99.90;;;;;;5093938;28;20032;-68
2023/04/04 03:37:30;;;;;;;21.15;14.18;;;31.00;99.90;;;;;;5094124;28;20524;-67
2023/04/04 03:39:57;;;;;;;19.50;15.48;;;31.00;99.90;;;;;;5093920;28;20024;-68
2023/04/04 03:42:23;;;;;;;22.30;13.90;;;31.20;99.90;;;;;;5093751;28;20016;-67
2023/04/04 03:44:51;;;;;;;23.77;17.55;;;31.20;99.90;;;;;;5094147;28;20023;-67
2023/04/04 03:47:17;;;;;;;27.17;18.67;;;31.20;99.90;;;;;;5093898;28;20024;-68
2023/04/04 03:49:44;;;;;;;28.90;21.92;;;31.20;99.90;;;;;;5094021;28;20274;-67
2023/04/04 03:52:10;;;;;;;27.70;21.17;;;31.40;99.90;;;;;;5094281;28;20020;-67
2023/04/04 03:54:38;;;;;;;34.78;23.80;;;31.50;99.90;;;;;;5093313;28;20023;-67
2023/04/04 03:57:05;;;;;;;44.45;28.85;;;31.50;99.90;;;;;;5093848;28;20020;-68
2023/04/04 03:59:31;;;;;;;26.50;19.20;;;31.50;99.90;;;;;;5093742;28;20034;-68
2023/04/04 04:01:58;;;;;;;37.03;27.00;;;31.50;99.90;;;;;;5093843;28;20108;-68
2023/04/04 04:04:25;;;;;;;28.33;22.67;;;31.50;99.90;;;;;;5093293;28;20017;-68
2023/04/04 04:06:51;;;;;;;19.02;15.88;;;31.50;99.90;;;;;;5093516;28;20020;-67
2023/04/04 04:09:18;;;;;;;26.15;18.85;;;31.50;99.90;;;;;;5093810;28;20099;-67
2023/04/04 04:11:45;;;;;;;24.50;20.40;;;31.50;99.90;;;;;;5093155;28;20020;-68
2023/04/04 04:14:11;;;;;;;25.80;20.15;;;31.60;99.90;;;;;;5093354;28;20050;-68
2023/04/04 04:16:40;;;;;;;30.17;20.13;;;31.60;99.90;;;;;;5093071;28;20048;-68
2023/04/04 04:19:06;;;;;;;23.15;18.60;;;31.60;99.90;;;;;;5093374;28;20024;-68
2023/04/04 04:21:33;;;;;;;27.38;16.45;;;31.70;99.90;;;;;;5099486;28;20035;-67
2023/04/04 04:23:59;;;;;;;21.85;15.77;;;31.70;99.90;;;;;;5104365;28;20051;-67
2023/04/04 04:26:26;;;;;;;17.88;15.15;;;31.70;99.90;;;;;;5102889;28;20486;-68
2023/04/04 04:28:53;;;;;;;23.55;18.88;;;31.70;99.90;;;;;;5102597;28;20028;-68
2023/04/04 04:31:19;;;;;;;27.42;18.77;;;31.70;99.90;;;;;;5104614;28;20444;-69
2023/04/04 04:33:46;;;;;;;25.83;18.27;;;31.60;99.90;;;;;;5102699;28;20028;-69
2023/04/04 04:36:12;;;;;;;23.77;18.52;;;31.60;99.90;;;;;;5102466;28;20024;-69
2023/04/04 04:38:39;;;;;;;27.85;19.77;;;31.60;99.90;;;;;;5104344;28;20015;-69
2023/04/04 04:41:06;;;;;;;24.65;17.73;;;31.60;99.90;;;;;;5102784;28;20046;-69
2023/04/04 04:43:32;;;;;;;23.90;18.92;;;31.60;99.90;;;;;;5102020;28;20020;-68
2023/04/04 04:45:59;;;;;;;27.73;19.45;;;31.60;99.90;;;;;;5102227;28;20027;-68
2023/04/04 04:48:26;;;;;;;25.02;18.98;;;31.60;99.90;;;;;;5099890;28;20016;-69
2023/04/04 04:50:52;;;;;;;27.20;18.63;;;31.60;99.90;;;;;;5103203;28;20031;-68
2023/04/04 04:53:19;;;;;;;30.42;19.58;;;31.70;99.90;;;;;;5104155;28;20028;-68
2023/04/04 04:55:46;;;;;;;26.52;21.58;;;31.70;99.90;;;;;;5102434;28;20028;-68
2023/04/04 04:58:12;;;;;;;26.05;20.25;;;31.70;99.90;;;;;;5103016;28;20252;-68
2023/04/04 05:00:39;;;;;;;25.33;20.60;;;31.90;99.90;;;;;;5104015;28;20031;-68
2023/04/04 05:03:06;;;;;;;22.00;19.70;;;31.80;99.90;;;;;;5099783;28;20074;-68
2023/04/04 05:05:34;;;;;;;23.77;18.13;;;31.90;99.90;;;;;;5103371;28;20007;-68
2023/04/04 05:08:01;;;;;;;23.13;18.10;;;31.90;99.90;;;;;;5107797;28;20049;-69
2023/04/04 05:10:28;;;;;;;24.73;18.75;;;32.00;99.90;;;;;;5106204;28;20027;-69
2023/04/04 05:12:55;;;;;;;29.10;19.80;;;32.00;99.90;;;;;;5106064;28;20121;-69
2023/04/04 05:15:21;;;;;;;26.92;17.45;;;32.00;99.90;;;;;;5107596;28;20413;-69
2023/04/04 05:17:48;;;;;;;34.05;19.23;;;32.00;99.90;;;;;;5105230;28;20103;-70
2023/04/04 05:20:15;;;;;;;23.67;17.15;;;32.00;99.90;;;;;;5106750;28;20500;-68
2023/04/04 05:22:44;;;;;;;23.70;18.90;;;32.00;99.90;;;;;;5099113;28;20469;-68
2023/04/04 05:25:12;;;;;;;23.63;17.85;;;32.10;99.90;;;;;;5096429;28;20073;-67
2023/04/04 05:27:39;;;;;;;22.48;18.13;;;32.10;99.90;;;;;;5096036;28;20371;-71
2023/04/04 05:30:06;;;;;;;17.88;15.82;;;32.10;99.90;;;;;;5096433;28;20382;-68
2023/04/04 05:32:33;;;;;;;19.13;15.15;;;32.00;99.90;;;;;;5100807;28;20463;-69
2023/04/04 05:35:00;;;;;;;19.27;14.82;;;32.00;99.90;;;;;;5101761;28;20012;-69
2023/04/04 05:37:27;;;;;;;18.38;14.98;;;32.00;99.90;;;;;;5105814;28;20016;-70
2023/04/04 05:39:54;;;;;;;17.23;14.13;;;32.00;99.90;;;;;;5106710;28;20012;-69
2023/04/04 05:42:20;;;;;;;17.45;14.35;;;32.00;99.90;;;;;;5101871;28;20130;-69
2023/04/04 05:44:47;;;;;;;18.52;15.43;;;32.10;99.90;;;;;;5105474;28;20046;-69
2023/04/04 05:47:13;;;;;;;20.75;14.48;;;32.20;99.90;;;;;;5096914;28;20470;-68
2023/04/04 05:49:40;;;;;;;21.35;15.18;;;32.30;99.90;;;;;;5096506;28;20021;-69
2023/04/04 05:52:07;;;;;;;18.33;14.07;;;32.40;99.90;;;;;;5105404;28;20020;-68
2023/04/04 05:54:33;;;;;;;19.83;14.68;;;32.50;99.90;;;;;;5105098;28;20068;-69
2023/04/04 05:56:59;;;;;;;18.85;14.43;;;32.60;99.90;;;;;;5106804;28;20374;-69
2023/04/04 05:59:27;;;;;;;26.58;15.63;;;32.70;99.90;;;;;;5104988;28;20053;-69
2023/04/04 06:01:53;;;;;;;20.05;13.75;;;32.80;99.90;;;;;;5104976;28;20028;-69
2023/04/04 06:04:20;;;;;;;19.17;13.40;;;32.90;99.90;;;;;;5106166;28;20012;-69
2023/04/04 06:06:46;;;;;;;16.95;12.50;;;32.90;99.90;;;;;;5104094;28;20465;-69
2023/04/04 06:09:13;;;;;;;16.52;12.60;;;32.90;99.90;;;;;;5104392;28;20027;-68
2023/04/04 06:11:40;;;;;;;19.42;14.73;;;32.90;99.90;;;;;;5104842;28;20019;-69
2023/04/04 06:14:07;;;;;;;24.60;13.80;;;33.00;99.90;;;;;;5102285;28;20066;-70
2023/04/04 06:16:35;;;;;;;16.73;11.27;;;33.00;99.90;;;;;;5102195;28;20050;-69
2023/04/04 06:19:01;;;;;;;17.52;12.93;;;33.00;99.90;;;;;;5099434;28;20020;-69
2023/04/04 06:21:28;;;;;;;20.75;13.20;;;33.00;99.90;;;;;;5101502;28;20039;-68
2023/04/04 06:23:55;;;;;;;14.77;12.18;;;33.00;99.90;;;;;;5103950;28;20111;-69
2023/04/04 06:26:21;;;;;;;12.75;9.98;;;33.00;99.90;;;;;;5102376;28;20095;-70
2023/04/04 06:28:49;;;;;;;14.85;10.95;;;33.10;99.90;;;;;;5104136;28;20061;-68
2023/04/04 06:31:16;;;;;;;18.15;12.45;;;33.10;99.90;;;;;;5105399;28;20110;-68
2023/04/04 06:33:42;;;;;;;17.48;12.43;;;33.10;99.90;;;;;;5103641;28;20107;-69
2023/04/04 06:36:09;;;;;;;19.60;14.10;;;33.10;99.90;;;;;;5103795;28;20019;-68
2023/04/04 06:38:36;;;;;;;17.25;12.77;;;33.20;99.90;;;;;;5114710;28;20051;-68
2023/04/04 06:41:02;;;;;;;17.65;9.93;;;33.20;99.90;;;;;;5115149;28;20027;-69
2023/04/04 06:43:29;;;;;;;14.18;10.07;;;33.10;99.90;;;;;;5115139;28;20088;-68
2023/04/04 06:45:55;;;;;;;12.35;10.27;;;33.10;99.90;;;;;;5115185;28;20412;-67
2023/04/04 06:48:22;;;;;;;16.85;11.55;;;33.10;99.90;;;;;;5115003;28;20024;-68
2023/04/04 06:50:48;;;;;;;17.48;11.77;;;33.10;99.90;;;;;;5114968;28;20049;-68
2023/04/04 06:53:15;;;;;;;15.65;12.20;;;33.30;99.90;;;;;;5115060;28;20068;-68
2023/04/04 06:55:41;;;;;;;17.67;11.45;;;33.30;99.90;;;;;;5115018;28;20389;-67
2023/04/04 06:58:08;;;;;;;11.95;10.63;;;33.30;99.90;;;;;;5114755;28;20022;-68
2023/04/04 07:00:35;;;;;;;11.05;9.63;;;33.30;99.90;;;;;;5114826;28;20027;-67
2023/04/04 07:03:01;;;;;;;15.55;10.27;;;33.30;99.90;;;;;;5114899;28;20091;-67
2023/04/04 07:05:28;;;;;;;19.95;11.77;;;33.30;99.90;;;;;;5114597;28;20015;-67
2023/04/04 07:07:55;;;;;;;14.32;11.70;;;33.30;99.90;;;;;;5114790;28;20120;-69
2023/04/04 07:10:25;;;;;;;16.27;10.05;;;33.40;99.90;;;;;;5114642;28;20098;-70
2023/04/04 07:12:52;;;;;;;19.98;8.70;;;33.40;99.90;;;;;;5114559;28;20030;-69
2023/04/04 07:15:19;;;;;;;11.20;8.57;;;33.40;99.90;;;;;;5114502;28;20030;-69
2023/04/04 07:17:45;;;;;;;15.50;9.90;;;33.30;99.90;;;;;;5114661;28;20470;-69
2023/04/04 07:20:12;;;;;;;9.93;7.82;;;33.30;99.90;;;;;;5114373;28;20469;-69
2023/04/04 07:22:39;;;;;;;11.30;8.10;;;33.40;99.90;;;;;;5088280;28;20059;-68
2023/04/04 07:25:07;;;;;;;8.35;6.78;;;33.30;99.90;;;;;;5081416;28;20024;-66
2023/04/04 07:27:34;;;;;;;12.18;7.45;;;33.30;99.90;;;;;;5094055;28;20091;-68
2023/04/04 07:30:01;;;;;;;8.30;6.63;;;33.30;99.90;;;;;;5093713;28;20425;-68
2023/04/04 07:32:28;;;;;;;10.77;7.63;;;33.40;99.90;;;;;;5091205;28;20432;-68
2023/04/04 07:34:54;;;;;;;8.80;6.85;;;33.50;99.90;;;;;;5073396;28;20028;-67
2023/04/04 07:37:21;;;;;;;9.73;6.55;;;33.70;99.90;;;;;;5073419;28;20103;-68
2023/04/04 07:39:48;;;;;;;8.48;6.35;;;33.80;99.90;;;;;;5073576;28;20021;-69
2023/04/04 07:42:21;;;;;;;10.38;7.05;;;33.80;99.90;;;;;;5073232;28;20390;-68
2023/04/04 07:44:49;;;;;;;17.88;7.70;;;33.80;99.90;;;;;;5073482;28;20470;-70
2023/04/04 07:47:16;;;;;;;8.93;6.45;;;33.80;99.90;;;;;;5090234;28;20020;-69
2023/04/04 07:49:43;;;;;;;12.85;6.72;;;33.80;99.90;;;;;;5093615;28;20024;-69
2023/04/04 07:52:10;;;;;;;17.00;6.88;;;33.80;99.90;;;;;;5093972;28;20035;-71
2023/04/04 07:54:36;;;;;;;14.70;6.82;;;33.80;99.90;;;;;;5093768;28;20107;-70
2023/04/04 07:57:08;;;;;;;11.25;7.25;;;33.70;99.90;;;;;;5093557;28;20128;-69
2023/04/04 07:59:35;;;;;;;;;;;33.70;99.90;;;;;;5094120;28;20107;-69
2023/04/04 08:02:02;;;;;;;12.25;7.28;;;33.70;99.90;;;;;;5093727;28;19914;-69
2023/04/04 08:04:28;;;;;;;12.45;8.18;;;33.70;99.90;;;;;;5093420;28;20103;-69
2023/04/04 08:06:55;;;;;;;10.23;7.07;;;33.80;99.90;;;;;;5093600;28;20020;-69
2023/04/04 08:09:21;;;;;;;9.52;7.82;;;33.90;99.90;;;;;;5074116;28;20020;-68
2023/04/04 08:11:48;;;;;;;10.77;7.00;;;33.90;99.90;;;;;;5073313;28;20021;-69
2023/04/04 08:14:14;;;;;;;15.45;10.18;;;34.00;99.90;;;;;;5073389;28;20108;-69
2023/04/04 08:16:41;;;;;;;15.68;8.15;;;34.00;99.80;;;;;;5073363;28;20120;-69
2023/04/04 08:19:07;;;;;;;36.42;20.80;;;34.00;99.90;;;;;;5073143;28;20020;-69
2023/04/04 08:21:34;;;;;;;25.63;13.95;;;34.00;99.90;;;;;;5073471;28;20024;-68
2023/04/04 08:24:00;;;;;;;43.95;23.83;;;34.00;99.90;;;;;;5073392;28;20078;-69
2023/04/04 08:26:28;;;;;;;25.00;14.30;;;34.00;99.90;;;;;;5073122;28;20027;-68
2023/04/04 08:28:54;;;;;;;23.63;12.93;;;33.90;99.90;;;;;;5073276;28;20024;-69
2023/04/04 08:31:21;;;;;;;15.88;8.57;;;33.90;99.90;;;;;;5073167;28;20099;-70
2023/04/04 08:33:47;;;;;;;13.27;8.38;;;33.90;99.90;;;;;;5073166;28;20020;-69
2023/04/04 08:36:15;;;;;;;17.42;8.63;;;33.90;99.90;;;;;;5073082;28;20016;-68
2023/04/04 08:38:41;;;;;;;15.15;9.25;;;33.90;99.90;;;;;;5073106;28;20174;-69
2023/04/04 08:41:08;;;;;;;12.05;8.95;;;33.90;99.90;;;;;;5074121;28;20028;-69
2023/04/04 08:43:39;;;;;;;18.67;8.05;;;33.90;99.80;;;;;;5077114;28;20490;-69
2023/04/04 08:46:09;;;;;;;19.25;8.30;;;33.90;99.90;;;;;;5077036;28;20104;-69
2023/04/04 08:48:38;;;;;;;11.90;7.18;;;33.90;99.90;;;;;;5076784;28;20414;-69
2023/04/04 08:51:05;;;;;;;9.32;6.32;;;33.90;99.90;;;;;;5076886;28;20024;-69
2023/04/04 08:53:33;;;;;;;9.10;5.75;;;34.00;99.90;;;;;;5076781;28;20028;-70
2023/04/04 08:55:59;;;;;;;8.85;5.50;;;33.90;99.70;;;;;;5076708;28;20052;-69
2023/04/04 08:58:26;;;;;;;10.57;5.28;;;33.80;99.00;;;;;;5076683;28;20020;-69
2023/04/04 09:00:54;;;;;;;10.02;6.13;;;33.80;99.70;;;;;;5076684;28;20036;-70
2023/04/04 09:03:33;;;;;;;12.27;7.80;;;33.90;99.70;;;;;;5076722;28;20363;-69
2023/04/04 09:06:00;;;;;;;20.23;10.68;;;33.90;98.40;;;;;;5076704;28;20048;-70
2023/04/04 09:08:29;;;;;;;23.25;8.10;;;33.90;98.90;;;;;;5076473;28;20017;-69
2023/04/04 09:10:56;;;;;;;15.07;7.07;;;34.00;99.90;;;;;;5076484;28;20024;-69
2023/04/04 09:13:23;;;;;;;11.38;6.45;;;34.00;99.90;;;;;;5076451;28;20125;-68
2023/04/04 09:15:54;;;;;;;16.52;9.10;;;34.10;99.90;;;;;;5076178;28;20043;-68
2023/04/04 09:18:21;;;;;;;;;;;34.10;99.90;;;;;;5077018;28;20020;-68
2023/04/04 09:20:48;;;;;;;21.65;14.20;;;34.00;99.90;;;;;;5076390;28;19908;-68
2023/04/04 09:23:17;;;;;;;20.20;13.20;;;33.90;99.90;;;;;;5076086;28;20021;-68
2023/04/04 09:25:48;;;;;;;20.38;11.95;;;33.80;99.90;;;;;;5076551;28;20150;-68
2023/04/04 09:28:16;;;;;;;15.25;11.02;;;33.90;99.90;;;;;;5076503;28;20025;-68
2023/04/04 09:30:45;;;;;;;18.88;11.80;;;33.90;99.90;;;;;;5076024;28;20025;-69
2023/04/04 09:33:13;;;;;;;13.85;9.35;;;33.90;99.90;;;;;;5076150;28;20032;-68
2023/04/04 09:35:45;;;;;;;12.75;8.38;;;33.90;99.90;;;;;;5075981;28;20024;-68
2023/04/04 09:38:12;;;;;;;17.23;10.63;;;33.80;99.90;;;;;;5075855;28;20071;-69
2023/04/04 09:40:41;;;;;;;17.33;12.52;;;33.90;99.90;;;;;;5076109;28;20029;-69
2023/04/04 09:43:08;;;;;;;22.17;11.77;;;33.80;99.90;;;;;;5075819;28;20028;-71
2023/04/04 09:45:39;;;;;;;29.08;15.15;;;33.80;99.90;;;;;;5075764;28;20024;-70
2023/04/04 09:48:09;;;;;;;25.02;13.70;;;33.80;99.90;;;;;;5075736;28;20024;-70
2023/04/04 09:50:43;;;;;;;20.42;13.98;;;33.80;99.90;;;;;;5075787;28;20024;-70
2023/04/04 09:53:18;;;;;;;24.60;15.20;;;33.80;99.90;;;;;;5075193;28;20056;-68
2023/04/04 09:55:55;;;;;;;20.42;13.70;;;33.70;99.90;;;;;;5075985;28;20025;-67
2023/04/04 09:58:26;;;;;;;25.10;13.70;;;33.70;99.90;;;;;;5075889;28;20030;-68
2023/04/04 10:01:08;;;;;;;23.23;13.13;;;33.70;99.90;;;;;;5075869;28;20078;-67
2023/04/04 10:03:38;;;;;;;27.17;17.25;;;33.60;99.90;;;;;;5075773;28;20028;-67
2023/04/04 10:06:06;;;;;;;28.65;18.27;;;33.70;99.90;;;;;;5076034;28;20035;-67
2023/04/04 10:08:34;;;;;;;39.35;25.02;;;33.60;99.90;;;;;;5075810;28;20021;-68
2023/04/04 10:11:03;;;;;;;46.08;27.85;;;33.60;99.90;;;;;;5075788;28;20031;-67
2023/04/04 10:13:32;;;;;;;31.10;19.75;;;33.50;99.90;;;;;;5075677;28;20049;-67
2023/04/04 10:16:01;;;;;;;26.25;16.73;;;33.50;99.90;;;;;;5075326;28;20041;-67
2023/04/04 10:18:31;;;;;;;33.53;21.92;;;33.50;99.90;;;;;;5075937;28;20035;-68
2023/04/04 10:21:01;;;;;;;42.45;23.70;;;33.50;99.90;;;;;;5075558;28;20462;-68
2023/04/04 10:23:27;;;;;;;60.95;34.33;;;33.40;99.90;;;;;;5075393;28;20032;-68
2023/04/04 10:25:58;;;;;;;50.58;28.48;;;33.30;99.90;;;;;;5075760;28;20024;-68
2023/04/04 10:28:25;;;;;;;54.13;28.65;;;33.20;99.90;;;;;;5075300;28;20024;-68
2023/04/04 10:31:14;;;;;;;41.78;24.40;;;33.10;99.90;;;;;;5074363;28;20029;-69
2023/04/04 10:34:12;;;;;;;48.55;27.75;;;33.10;99.90;;;;;;5093171;28;20028;-68
2023/04/04 10:37:11;;;;;;;42.97;25.65;;;33.10;99.90;;;;;;5104193;28;20066;-68
2023/04/04 10:39:49;;;;;;;55.88;30.83;;;33.00;99.90;;;;;;5101354;28;20073;-68
2023/04/04 10:42:16;;;;;;;60.85;36.55;;;33.00;99.90;;;;;;5100283;28;20441;-70
2023/04/04 10:44:45;;;;;;;56.80;32.17;;;32.80;99.90;;;;;;5104475;28;20104;-71
2023/04/04 10:47:16;;;;;;;58.75;34.58;;;32.70;99.90;;;;;;5105271;28;20028;-71
2023/04/04 10:49:44;;;;;;;;;;;32.70;99.90;;;;;;5099146;28;20028;-71
2023/04/04 10:52:13;;;;;;;55.80;31.75;;;32.60;99.90;;;;;;5092420;28;20330;-71
2023/04/04 10:54:42;;;;;;;46.63;28.10;;;32.60;99.90;;;;;;5092699;28;20095;-69
2023/04/04 10:57:10;;;;;;;47.15;29.08;;;32.50;99.90;;;;;;5095112;28;20032;-67
2023/04/04 11:00:08;;;;;;;41.65;26.48;;;32.40;99.90;;;;;;5100811;28;20047;-67
2023/04/04 11:02:52;;;;;;;46.05;29.58;;;32.30;99.90;;;;;;5099154;28;20054;-68
2023/04/04 11:05:21;;;;;;;52.60;30.20;;;32.20;99.90;;;;;;5102374;28;20027;-69
2023/04/04 11:07:52;;;;;;;50.28;32.25;;;32.30;99.90;;;;;;5098347;28;20019;-69
2023/04/04 11:10:24;;;;;;;52.25;32.13;;;32.20;99.90;;;;;;5080893;28;20031;-68
2023/04/04 11:12:54;;;;;;;50.85;30.83;;;32.30;99.90;;;;;;5097062;28;20020;-69
2023/04/04 11:15:25;;;;;;;53.13;28.02;;;32.30;99.90;;;;;;5093778;28;20035;-68
2023/04/04 11:17:56;;;;;;;58.70;39.33;;;32.20;99.90;;;;;;5093650;28;20092;-72
2023/04/04 11:20:27;;;;;;;45.00;26.33;;;32.30;99.90;;;;;;5090629;28;20277;-69
2023/04/04 11:23:05;;;;;;;39.42;22.90;;;32.20;99.90;;;;;;5091756;28;20020;-68
2023/04/04 11:25:37;;;;;;;46.28;27.75;;;32.10;99.90;;;;;;5101220;28;20028;-68
2023/04/04 11:28:25;;;;;;;36.53;23.92;;;32.00;99.90;;;;;;5103461;28;20032;-69
2023/04/04 11:31:22;;;;;;;41.13;26.15;;;32.00;99.90;;;;;;5096150;28;20165;-69
2023/04/04 11:34:02;;;;;;;51.90;35.35;;;32.00;99.90;;;;;;5102918;28;20035;-69
2023/04/04 11:36:41;;;;;;;46.53;28.83;;;32.10;99.90;;;;;;5098234;28;20042;-70
2023/04/04 11:39:14;;;;;;;31.80;19.40;;;32.10;99.90;;;;;;5105943;28;20027;-67
2023/04/04 11:41:57;;;;;;;44.55;32.20;;;32.20;99.90;;;;;;5104479;28;20036;-69
2023/04/04 11:44:28;;;;;;;98.25;68.60;;;32.20;99.90;;;;;;5104814;28;20043;-69
2023/04/04 11:46:59;;;;;;;46.72;28.67;;;32.20;99.90;;;;;;5104078;28;20374;-69
2023/04/04 11:49:29;;;;;;;44.47;29.52;;;32.10;99.90;;;;;;5099884;28;20098;-71
2023/04/04 11:51:56;;;;;;;73.82;49.58;;;32.10;99.90;;;;;;5102501;28;20477;-69
2023/04/04 11:54:23;;;;;;;56.65;47.95;;;32.10;99.90;;;;;;5104814;28;20029;-69
2023/04/04 11:56:52;;;;;;;37.63;29.80;;;32.00;99.90;;;;;;5100747;28;20044;-69
2023/04/04 11:59:21;;;;;;;77.22;63.85;;;31.90;99.90;;;;;;5103637;28;20019;-70
2023/04/04 12:01:49;;;;;;;45.80;33.35;;;31.80;99.90;;;;;;5104125;28;20020;-69
2023/04/04 12:04:18;;;;;;;58.28;37.95;;;31.80;99.90;;;;;;5102403;28;20020;-70
2023/04/04 12:06:54;;;;;;;61.17;44.67;;;31.70;99.90;;;;;;5102188;28;20016;-70
2023/04/04 12:09:24;;;;;;;48.45;33.25;;;31.60;99.90;;;;;;5103833;28;20024;-69
2023/04/04 12:11:51;;;;;;;39.70;25.90;;;31.70;99.90;;;;;;5103819;28;20023;-70
2023/04/04 12:14:19;;;;;;;33.30;22.30;;;31.70;99.90;;;;;;5103879;28;20024;-69
2023/04/04 12:16:50;;;;;;;28.63;18.40;;;31.60;99.90;;;;;;5102102;28;20047;-69
2023/04/04 12:19:17;;;;;;;35.72;18.98;;;31.60;99.90;;;;;;5104419;28;20023;-69
2023/04/04 12:21:45;;;;;;;32.80;17.92;;;31.40;99.90;;;;;;5102363;28;20023;-71
2023/04/04 12:24:13;;;;;;;28.13;17.48;;;31.40;99.90;;;;;;5100105;28;20114;-71
2023/04/04 12:26:43;;;;;;;27.10;17.90;;;31.50;99.90;;;;;;5104466;28;20375;-72
2023/04/04 12:29:11;;;;;;;23.00;13.48;;;31.50;99.90;;;;;;5099527;28;20103;-72
2023/04/04 12:31:40;;;;;;;25.65;14.32;;;31.40;99.90;;;;;;5098207;28;20149;-72
2023/04/04 12:34:14;;;;;;;17.10;12.00;;;31.20;99.90;;;;;;5094081;28;20039;-72
2023/04/04 12:36:41;;;;;;;21.00;12.30;;;31.20;99.90;;;;;;5093897;28;20100;-71
2023/04/04 12:39:11;;;;;;;18.33;10.77;;;31.10;99.90;;;;;;5093346;28;20051;-71